Time;durP1;ratioP1;P1;durP2;ratioP2;P2;SDS_P1;SDS_P2;PMS_P1;PMS_P2;Temp;Humidity;BMP_temperature;BMP_pressure;BME280_temperature;BME280_humidity;BME280_pressure;Samples;Min_cycle;Max_cycle;Signal;HPM_P1;HPM_P2
2022/10/10 00:06:31;;;;;;;10.17;6.17;;;7.70;1.00;;;;;;5078133;28;20466;-87
2022/10/10 00:12:32;;;;;;;11.20;6.83;;;7.60;1.00;;;;;;5080420;28;20423;-79
2022/10/10 00:28:26;;;;;;;16.73;6.80;;;7.50;1.00;;;;;;5092633;28;20423;-78
2022/10/10 00:31:37;;;;;;;9.23;6.60;;;7.50;1.00;;;;;;5084337;28;20424;-78
2022/10/10 00:40:49;;;;;;;12.70;6.20;;;7.40;1.00;;;;;;5086190;28;20562;-78
2022/10/10 00:44:01;;;;;;;17.97;6.10;;;7.40;1.00;;;;;;5074190;28;20436;-79
2022/10/10 00:50:07;;;;;;;15.30;6.47;;;7.30;1.00;;;;;;5072709;28;20412;-78
2022/10/10 00:56:02;;;;;;;14.33;6.37;;;7.30;1.00;;;;;;5089319;28;20496;-78
2022/10/10 01:02:19;;;;;;;11.00;6.60;;;7.30;1.00;;;;;;5075169;28;20420;-78
2022/10/10 01:08:26;;;;;;;10.07;7.00;;;7.20;1.00;;;;;;5075777;28;20447;-78
2022/10/10 01:11:30;;;;;;;10.47;5.90;;;7.20;1.00;;;;;;5073078;28;21073;-78
2022/10/10 01:14:39;;;;;;;9.33;6.37;;;7.20;1.00;;;;;;5080890;28;20934;-88
2022/10/10 01:17:42;;;;;;;13.33;6.93;;;7.20;1.00;;;;;;5072353;28;20555;-87
2022/10/10 01:30:28;;;;;;;12.07;6.63;;;7.00;1.00;;;;;;5078981;28;20430;-87
2022/10/10 01:40:03;;;;;;;12.93;5.93;;;6.90;1.00;;;;;;5077358;28;20792;-87
2022/10/10 01:42:31;;;;;;;9.53;5.70;;;6.90;1.00;;;;;;5078733;28;20440;-86
2022/10/10 01:45:27;;;;;;;17.20;5.67;;;6.90;1.00;;;;;;5079696;28;20934;-87
2022/10/10 01:51:39;;;;;;;10.33;6.33;;;6.80;1.00;;;;;;5084423;28;20408;-87
2022/10/10 01:55:01;;;;;;;9.70;6.30;;;6.80;1.00;;;;;;5088504;28;20428;-87
2022/10/10 02:01:26;;;;;;;13.87;6.10;;;6.70;1.00;;;;;;5075891;28;20463;-79
2022/10/10 02:08:12;;;;;;;11.43;5.70;;;6.70;1.00;;;;;;5077544;28;20561;-79
2022/10/10 02:11:04;;;;;;;12.17;6.10;;;6.60;1.00;;;;;;5013684;28;20829;-78
2022/10/10 02:13:51;;;;;;;6.63;4.80;;;6.60;1.00;;;;;;5017911;28;20505;-79
2022/10/10 02:16:27;;;;;;;8.43;5.70;;;6.50;1.00;;;;;;5029524;28;20824;-78
2022/10/10 02:19:11;;;;;;;5.80;4.47;;;6.60;1.00;;;;;;5017936;28;20554;-78
2022/10/10 02:21:56;;;;;;;8.87;5.40;;;6.50;1.00;;;;;;5019675;28;20456;-79
2022/10/10 02:24:23;;;;;;;7.50;5.60;;;6.50;1.00;;;;;;5032681;28;20447;-78
2022/10/10 02:27:04;;;;;;;8.87;5.50;;;6.50;1.00;;;;;;5033018;28;20450;-79
2022/10/10 02:29:33;;;;;;;9.20;6.27;;;6.50;1.00;;;;;;5018102;28;20797;-78
2022/10/10 02:35:31;;;;;;;15.23;5.60;;;6.40;1.00;;;;;;5028681;28;20504;-79
2022/10/10 02:41:38;;;;;;;10.33;5.70;;;6.30;1.00;;;;;;5050263;28;20449;-78
2022/10/10 02:47:26;;;;;;;7.70;5.57;;;6.30;1.00;;;;;;5086008;28;20473;-86
2022/10/10 02:50:31;;;;;;;7.30;5.73;;;6.20;1.00;;;;;;5079418;28;20432;-87
2022/10/10 02:53:19;;;;;;;9.80;5.03;;;6.20;1.00;;;;;;5082443;28;20484;-87
2022/10/10 03:05:51;;;;;;;9.10;5.23;;;6.10;1.00;;;;;;5083539;28;20435;-78
2022/10/10 03:11:56;;;;;;;11.47;5.00;;;6.00;1.00;;;;;;5081371;28;20190;-78
2022/10/10 03:17:43;;;;;;;9.93;5.27;;;6.00;1.00;;;;;;5089570;28;20479;-87
2022/10/10 03:20:55;;;;;;;9.37;5.50;;;6.00;1.00;;;;;;5094931;28;20896;-87
2022/10/10 03:26:56;;;;;;;14.00;6.03;;;6.00;1.00;;;;;;5076604;28;20408;-87
2022/10/10 03:32:43;;;;;;;19.00;5.27;;;5.80;1.00;;;;;;5082545;28;20386;-78
2022/10/10 03:35:43;;;;;;;9.20;5.37;;;5.90;1.00;;;;;;5073948;28;20425;-78
2022/10/10 03:39:01;;;;;;;14.90;5.93;;;5.80;1.00;;;;;;5081454;28;20167;-78
2022/10/10 03:44:49;;;;;;;10.20;5.43;;;5.80;1.00;;;;;;5085980;28;20408;-78
2022/10/10 03:47:32;;;;;;;10.00;5.17;;;5.80;1.00;;;;;;5086263;28;20433;-78
2022/10/10 03:53:19;;;;;;;7.33;5.47;;;5.90;1.00;;;;;;5085753;28;20452;-78
2022/10/10 03:56:31;;;;;;;7.50;5.53;;;5.80;1.00;;;;;;5080362;28;20919;-78
2022/10/10 04:02:50;;;;;;;11.83;5.00;;;5.80;1.00;;;;;;5084550;28;20465;-78
2022/10/10 04:06:01;;;;;;;10.50;5.40;;;5.80;1.00;;;;;;5084034;28;20481;-79
2022/10/10 04:08:55;;;;;;;12.17;4.90;;;5.90;1.00;;;;;;5078010;28;20445;-78
2022/10/10 04:12:01;;;;;;;12.00;5.57;;;5.80;1.00;;;;;;5093726;28;20458;-78
2022/10/10 04:14:55;;;;;;;7.40;5.07;;;5.80;1.00;;;;;;5087182;28;20455;-85
2022/10/10 04:17:21;;;;;;;7.40;5.20;;;5.80;1.00;;;;;;5080240;28;20459;-75
2022/10/10 04:19:47;;;;;;;8.03;4.83;;;5.90;1.00;;;;;;5086864;28;20421;-74
2022/10/10 04:22:13;;;;;;;10.30;5.17;;;5.90;1.00;;;;;;5077597;28;20648;-74
2022/10/10 04:24:44;;;;;;;9.10;5.37;;;5.90;1.00;;;;;;5077084;28;20575;-74
2022/10/10 04:27:14;;;;;;;7.40;4.90;;;5.90;1.00;;;;;;5078494;28;20433;-74
2022/10/10 04:29:39;;;;;;;11.80;4.93;;;5.80;1.00;;;;;;5081794;28;20890;-73
2022/10/10 04:32:06;;;;;;;8.20;4.50;;;5.80;1.00;;;;;;5077757;28;20436;-73
2022/10/10 04:34:32;;;;;;;5.67;4.60;;;5.80;1.00;;;;;;5085124;28;20662;-73
2022/10/10 04:36:58;;;;;;;9.60;5.23;;;5.80;1.00;;;;;;5077066;28;20499;-73
2022/10/10 04:39:23;;;;;;;7.43;4.97;;;5.80;1.00;;;;;;5091245;28;20223;-73
2022/10/10 04:41:49;;;;;;;8.60;4.63;;;5.80;1.00;;;;;;5081521;28;20206;-73
2022/10/10 04:44:16;;;;;;;12.57;5.53;;;5.80;1.00;;;;;;5080064;28;20421;-73
2022/10/10 04:46:45;;;;;;;13.20;5.30;;;5.80;1.00;;;;;;5087077;28;20186;-75
2022/10/10 04:49:11;;;;;;;11.83;4.60;;;5.80;1.00;;;;;;5076376;28;20436;-74
2022/10/10 04:51:44;;;;;;;8.13;4.53;;;5.80;1.00;;;;;;5077986;28;20413;-74
2022/10/10 04:54:14;;;;;;;7.23;5.53;;;5.80;1.00;;;;;;5085128;28;20444;-73
2022/10/10 04:56:44;;;;;;;7.63;4.97;;;5.80;1.00;;;;;;5080724;28;20847;-76
2022/10/10 04:59:11;;;;;;;8.87;5.20;;;5.80;1.00;;;;;;5076704;28;21003;-73
2022/10/10 05:01:36;;;;;;;11.57;5.50;;;5.80;1.00;;;;;;5077495;28;20416;-74
2022/10/10 05:04:08;;;;;;;7.23;4.80;;;5.70;1.00;;;;;;5074275;28;20911;-74
2022/10/10 05:06:34;;;;;;;11.53;5.07;;;5.70;1.00;;;;;;5076896;28;20209;-74
2022/10/10 05:09:02;;;;;;;8.20;5.03;;;5.70;1.00;;;;;;5087607;28;20409;-74
2022/10/10 05:11:28;;;;;;;10.70;5.53;;;5.70;1.00;;;;;;5078486;28;20439;-74
2022/10/10 05:13:54;;;;;;;6.10;4.60;;;5.70;1.00;;;;;;5089078;28;20427;-74
2022/10/10 05:16:20;;;;;;;8.03;4.93;;;5.70;1.00;;;;;;5085913;28;20260;-73
2022/10/10 05:18:45;;;;;;;9.17;5.43;;;5.70;1.00;;;;;;5079337;28;20171;-72
2022/10/10 05:21:11;;;;;;;8.10;5.13;;;5.70;1.00;;;;;;5096062;28;20734;-73
2022/10/10 05:23:37;;;;;;;7.50;4.97;;;5.70;1.00;;;;;;5088761;28;20316;-73
2022/10/10 05:26:09;;;;;;;8.53;5.57;;;5.60;1.00;;;;;;5086901;28;20534;-73
2022/10/10 05:28:35;;;;;;;8.30;4.80;;;5.60;1.00;;;;;;5090051;28;20514;-73
2022/10/10 05:31:02;;;;;;;6.70;4.63;;;5.60;1.00;;;;;;5084670;28;20785;-73
2022/10/10 05:33:28;;;;;;;7.93;4.70;;;5.60;1.00;;;;;;5077572;28;20749;-73
2022/10/10 05:36:04;;;;;;;14.83;5.23;;;5.60;1.00;;;;;;5078985;28;20417;-72
2022/10/10 05:38:32;;;;;;;7.00;5.20;;;5.60;1.00;;;;;;5082103;28;20434;-72
2022/10/10 05:40:59;;;;;;;10.80;5.27;;;5.60;1.00;;;;;;5077284;28;20439;-73
2022/10/10 05:43:25;;;;;;;8.30;5.37;;;5.60;1.00;;;;;;5080989;28;20429;-73
2022/10/10 05:45:51;;;;;;;12.30;5.40;;;5.60;1.00;;;;;;5085888;28;20416;-72
2022/10/10 05:48:17;;;;;;;6.43;4.63;;;5.60;1.00;;;;;;5089383;28;20741;-73
2022/10/10 05:54:05;;;;;;;11.90;5.20;;;5.60;1.00;;;;;;5091139;28;20470;-82
2022/10/10 05:57:01;;;;;;;12.03;5.20;;;5.60;1.00;;;;;;5080808;28;20544;-82
2022/10/10 06:00:02;;;;;;;6.83;5.00;;;5.60;1.00;;;;;;5077015;28;20179;-82
2022/10/10 06:02:38;;;;;;;6.90;5.27;;;5.60;1.00;;;;;;5088316;28;20904;-78
2022/10/10 06:08:32;;;;;;;8.83;4.60;;;5.50;1.00;;;;;;5083999;28;20433;-78
2022/10/10 06:11:32;;;;;;;7.70;5.30;;;5.60;1.00;;;;;;5079212;28;20512;-78
2022/10/10 06:14:31;;;;;;;6.70;4.73;;;5.60;1.00;;;;;;5077970;28;20441;-78
2022/10/10 06:17:03;;;;;;;4.70;4.20;;;5.50;1.00;;;;;;5089190;28;20539;-78
2022/10/10 06:19:44;;;;;;;17.77;5.60;;;5.50;1.00;;;;;;5078270;28;20425;-78
2022/10/10 06:23:02;;;;;;;7.07;4.80;;;5.50;1.00;;;;;;5084336;28;20451;-79
2022/10/10 06:25:33;;;;;;;10.13;5.23;;;5.60;1.00;;;;;;5081079;28;20511;-78
2022/10/10 06:31:20;;;;;;;8.80;4.83;;;5.70;1.00;;;;;;5076084;28;20416;-78
2022/10/10 06:34:13;;;;;;;8.30;4.90;;;5.80;1.00;;;;;;5087659;28;20432;-78
2022/10/10 06:37:19;;;;;;;6.93;5.23;;;5.80;1.00;;;;;;5076310;28;20199;-79
2022/10/10 06:39:45;;;;;;;14.10;4.93;;;5.90;1.00;;;;;;5080439;28;20515;-77
2022/10/10 06:43:03;;;;;;;6.80;4.53;;;5.90;1.00;;;;;;5076707;28;20452;-78
2022/10/10 06:45:29;;;;;;;6.83;4.43;;;5.90;1.00;;;;;;5083434;28;20303;-78
2022/10/10 06:47:55;;;;;;;9.00;4.97;;;6.00;1.00;;;;;;5078814;28;20436;-78
2022/10/10 06:50:26;;;;;;;4.90;4.43;;;6.10;1.00;;;;;;5075377;28;20440;-78
2022/10/10 06:53:03;;;;;;;8.80;5.17;;;6.20;1.00;;;;;;5076086;28;20183;-78
2022/10/10 06:55:32;;;;;;;7.50;4.20;;;6.30;1.00;;;;;;5082096;28;20424;-79
2022/10/10 06:58:14;;;;;;;9.20;4.40;;;6.40;1.00;;;;;;5082644;28;20955;-77
2022/10/10 07:01:19;;;;;;;6.10;4.70;;;6.50;1.00;;;;;;5089473;28;20486;-79
2022/10/10 07:04:25;;;;;;;7.93;5.00;;;6.60;1.00;;;;;;5077268;28;20463;-78
2022/10/10 07:06:51;;;;;;;6.90;4.20;;;6.80;1.00;;;;;;5074826;28;20806;-78
2022/10/10 07:09:32;;;;;;;9.33;4.47;;;7.00;1.00;;;;;;5079854;28;20470;-78
2022/10/10 07:12:02;;;;;;;7.40;4.30;;;7.10;1.00;;;;;;5074657;28;20186;-78
2022/10/10 07:14:44;;;;;;;10.13;4.53;;;7.20;1.00;;;;;;5076837;28;20456;-78
2022/10/10 07:18:01;;;;;;;8.07;4.20;;;7.20;1.00;;;;;;5080166;28;20449;-78
2022/10/10 07:20:44;;;;;;;7.30;3.50;;;7.10;1.00;;;;;;5083781;28;20428;-78
2022/10/10 07:23:13;;;;;;;10.63;4.30;;;7.20;1.00;;;;;;5080705;28;20443;-79
2022/10/10 07:26:04;;;;;;;6.40;3.70;;;7.30;1.00;;;;;;5079922;28;20480;-78
2022/10/10 07:28:32;;;;;;;9.03;4.33;;;7.50;1.00;;;;;;5073881;28;20471;-79
2022/10/10 07:31:10;;;;;;;6.60;4.37;;;7.70;1.00;;;;;;5086627;28;20428;-83
2022/10/10 07:33:39;;;;;;;8.20;5.20;;;7.90;1.00;;;;;;5076445;28;20455;-77
2022/10/10 07:36:31;;;;;;;8.27;5.13;;;8.20;1.00;;;;;;5081187;28;20420;-76
2022/10/10 07:39:02;;;;;;;6.30;4.30;;;8.50;1.00;;;;;;5081687;28;20470;-77
2022/10/10 07:41:32;;;;;;;6.73;4.53;;;8.70;1.00;;;;;;5084459;28;20416;-77
2022/10/10 07:44:03;;;;;;;9.20;4.50;;;8.90;1.00;;;;;;5074703;28;20778;-77
2022/10/10 07:47:01;;;;;;;9.20;4.93;;;9.10;1.00;;;;;;5074901;28;20462;-79
2022/10/10 07:50:02;;;;;;;6.40;4.30;;;9.20;1.00;;;;;;5077136;28;20436;-78
2022/10/10 07:52:27;;;;;;;6.13;3.93;;;9.30;1.00;;;;;;5083297;28;20899;-79
2022/10/10 07:55:03;;;;;;;9.90;4.40;;;9.50;1.00;;;;;;5076354;28;20425;-79
2022/10/10 07:57:33;;;;;;;10.80;5.50;;;9.90;1.00;;;;;;5088275;28;20265;-79
2022/10/10 08:00:32;;;;;;;11.83;5.33;;;10.30;1.00;;;;;;5086971;28;20466;-79
2022/10/10 08:03:31;;;;;;;9.13;4.80;;;10.60;1.00;;;;;;5075593;28;20455;-76
2022/10/10 08:06:10;;;;;;;7.23;4.70;;;10.80;1.00;;;;;;5074702;28;20421;-77
2022/10/10 08:08:47;;;;;;;12.83;5.30;;;11.10;1.00;;;;;;5078257;28;20807;-76
2022/10/10 08:11:37;;;;;;;10.43;4.87;;;11.30;1.00;;;;;;5082566;28;20412;-75
2022/10/10 08:14:14;;;;;;;12.83;5.80;;;11.40;1.00;;;;;;5074665;28;20421;-75
2022/10/10 08:17:13;;;;;;;8.77;4.60;;;11.50;1.00;;;;;;5074372;28;20538;-80
2022/10/10 08:20:31;;;;;;;12.90;5.30;;;11.60;1.00;;;;;;5077355;28;20456;-79
2022/10/10 08:23:13;;;;;;;15.70;4.80;;;11.70;1.00;;;;;;5093231;28;20433;-79
2022/10/10 08:26:03;;;;;;;8.47;5.10;;;11.80;1.00;;;;;;5079331;28;20469;-79
2022/10/10 08:28:33;;;;;;;13.83;6.03;;;11.80;1.00;;;;;;5073509;28;20421;-80
2022/10/10 08:31:10;;;;;;;12.23;6.40;;;11.90;1.00;;;;;;5076286;28;20424;-80
2022/10/10 08:33:45;;;;;;;11.40;5.53;;;12.00;1.00;;;;;;5081954;28;20935;-76
2022/10/10 08:36:21;;;;;;;8.50;6.83;;;12.20;1.00;;;;;;5086916;28;20457;-76
2022/10/10 08:38:47;;;;;;;16.83;7.30;;;12.30;1.00;;;;;;5073512;28;20405;-76
2022/10/10 08:41:47;;;;;;;10.30;6.53;;;12.20;1.00;;;;;;5073769;28;20416;-77
2022/10/10 08:44:35;;;;;;;13.13;7.37;;;12.30;1.00;;;;;;5084403;28;20185;-77
2022/10/10 08:47:08;;;;;;;14.03;7.67;;;12.40;1.00;;;;;;5075289;28;20433;-79
2022/10/10 08:49:53;;;;;;;14.00;7.50;;;12.50;1.00;;;;;;5077750;28;20925;-79
2022/10/10 08:52:54;;;;;;;9.30;7.10;;;12.60;1.00;;;;;;5088646;28;20967;-78
2022/10/10 08:55:36;;;;;;;14.90;7.00;;;12.60;1.00;;;;;;5082236;28;20904;-79
2022/10/10 08:58:33;;;;;;;10.40;6.77;;;12.80;1.00;;;;;;5080080;28;20517;-79
2022/10/10 09:01:14;;;;;;;9.27;7.30;;;13.00;1.00;;;;;;5090447;28;20510;-79
2022/10/10 09:04:15;;;;;;;17.47;7.57;;;13.00;1.00;;;;;;5078972;28;20441;-76
2022/10/10 09:07:06;;;;;;;9.67;6.83;;;13.10;1.00;;;;;;5084346;28;20404;-76
2022/10/10 09:09:35;;;;;;;11.77;6.80;;;13.30;1.00;;;;;;5077135;28;20421;-76
2022/10/10 09:12:38;;;;;;;12.23;6.07;;;13.30;1.00;;;;;;5084474;28;20400;-77
2022/10/10 09:15:50;;;;;;;12.00;6.33;;;13.20;1.00;;;;;;5097137;28;20498;-77
2022/10/10 09:22:31;;;;;;;11.23;6.00;;;13.50;1.00;;;;;;5082122;28;20403;-79
2022/10/10 09:25:34;;;;;;;9.83;5.90;;;13.50;1.00;;;;;;5096582;28;20416;-79
2022/10/10 09:28:09;;;;;;;12.40;6.10;;;13.60;1.00;;;;;;5095453;28;20408;-79
2022/10/10 09:31:03;;;;;;;14.20;6.10;;;13.70;1.00;;;;;;5096228;28;20412;-78
2022/10/10 09:33:38;;;;;;;12.73;5.83;;;13.70;1.00;;;;;;5085721;28;20476;-78
2022/10/10 09:40:07;;;;;;;13.40;6.07;;;13.80;1.00;;;;;;5079886;28;20846;-78
2022/10/10 09:43:22;;;;;;;13.20;6.17;;;14.00;1.00;;;;;;5077343;28;20415;-78
2022/10/10 09:46:02;;;;;;;8.87;6.63;;;14.00;1.00;;;;;;5031074;28;20459;-78
2022/10/10 09:48:35;;;;;;;7.63;5.70;;;14.10;1.00;;;;;;5029943;28;20385;-79
2022/10/10 09:51:32;;;;;;;15.93;5.90;;;14.10;1.00;;;;;;5027059;28;20854;-79
2022/10/10 09:53:58;;;;;;;10.90;6.00;;;14.10;1.00;;;;;;5031017;28;20431;-79
2022/10/10 09:56:52;;;;;;;8.17;6.10;;;14.10;1.00;;;;;;5031931;28;20546;-78
2022/10/10 10:03:05;;;;;;;6.50;5.23;;;14.40;1.00;;;;;;5025443;28;20391;-78
2022/10/10 10:05:32;;;;;;;9.43;5.63;;;14.70;1.00;;;;;;5034039;28;20920;-78
2022/10/10 10:07:58;;;;;;;9.23;5.97;;;14.90;1.00;;;;;;5033664;28;20447;-78
2022/10/10 10:10:29;;;;;;;8.57;5.60;;;15.10;1.00;;;;;;5030402;28;20523;-79
2022/10/10 10:16:16;;;;;;;9.03;5.10;;;16.00;1.00;;;;;;5033586;28;20461;-78
2022/10/10 10:19:02;;;;;;;8.77;4.73;;;16.10;1.00;;;;;;5033238;28;20415;-78
2022/10/10 10:21:28;;;;;;;13.60;5.70;;;16.40;1.00;;;;;;5041516;28;20262;-78
2022/10/10 10:24:23;;;;;;;12.80;5.80;;;16.40;1.00;;;;;;5076395;28;20418;-78
2022/10/10 10:27:23;;;;;;;8.70;5.60;;;16.40;1.00;;;;;;5084961;28;20443;-78
2022/10/10 10:29:57;;;;;;;13.53;5.80;;;16.40;1.00;;;;;;5023781;28;20950;-78
2022/10/10 10:32:47;;;;;;;14.70;6.20;;;16.60;1.00;;;;;;5015610;28;20407;-79
2022/10/10 10:35:42;;;;;;;7.03;4.97;;;16.80;1.00;;;;;;5023148;28;20430;-78
2022/10/10 10:38:43;;;;;;;11.63;5.47;;;17.10;1.00;;;;;;5026937;28;20475;-78
2022/10/10 10:41:43;;;;;;;14.67;6.33;;;17.20;1.00;;;;;;5031491;28;20387;-77
2022/10/10 10:45:01;;;;;;;10.70;5.10;;;17.30;1.00;;;;;;5029654;28;20429;-80
2022/10/10 10:48:02;;;;;;;9.50;5.90;;;17.40;1.00;;;;;;5015625;28;20483;-78
2022/10/10 10:50:53;;;;;;;18.07;5.53;;;17.30;1.00;;;;;;5026957;28;20524;-76
2022/10/10 10:53:43;;;;;;;7.80;5.50;;;17.30;1.00;;;;;;5013329;28;20395;-77
2022/10/10 10:56:58;;;;;;;16.67;5.00;;;17.40;1.00;;;;;;5023085;28;20521;-77
2022/10/10 10:59:45;;;;;;;8.80;5.73;;;17.50;1.00;;;;;;4964099;28;20505;-76
2022/10/10 11:02:32;;;;;;;10.67;5.97;;;17.60;1.00;;;;;;4961302;28;20444;-76
2022/10/10 11:05:37;;;;;;;13.83;6.17;;;17.50;1.00;;;;;;4963657;28;20398;-76
2022/10/10 11:08:32;;;;;;;6.53;4.97;;;17.50;1.00;;;;;;4904761;29;20425;-76
2022/10/10 11:11:23;;;;;;;15.00;5.93;;;17.50;1.00;;;;;;4897247;29;20406;-81
2022/10/10 11:14:33;;;;;;;7.57;6.27;;;17.40;1.00;;;;;;4897469;29;20759;-81
2022/10/10 11:17:29;;;;;;;15.13;6.03;;;17.30;1.00;;;;;;4895366;29;20442;-77
2022/10/10 11:33:44;;;;;;;7.10;5.50;;;17.70;1.00;;;;;;4893375;29;20478;-78
2022/10/10 11:36:33;;;;;;;11.77;6.27;;;17.70;1.00;;;;;;4950538;28;20504;-77
2022/10/10 11:39:19;;;;;;;10.60;6.03;;;17.70;1.00;;;;;;5001895;28;21373;-77
2022/10/10 11:45:36;;;;;;;11.80;5.83;;;17.90;1.00;;;;;;5054078;28;20920;-78
2022/10/10 11:48:45;;;;;;;10.03;5.17;;;17.90;1.00;;;;;;5085255;28;20492;-82
2022/10/10 11:54:44;;;;;;;10.43;5.40;;;18.00;1.00;;;;;;5074505;28;20394;-82
2022/10/10 12:03:56;;;;;;;13.50;5.83;;;18.40;1.00;;;;;;5087492;28;20411;-79
2022/10/10 12:07:01;;;;;;;13.27;6.00;;;18.50;1.00;;;;;;5084198;28;20911;-77
2022/10/10 12:09:42;;;;;;;15.10;5.20;;;18.50;1.00;;;;;;5077146;28;20428;-78
2022/10/10 12:12:31;;;;;;;8.40;5.00;;;18.70;1.00;;;;;;5077375;28;20444;-78
2022/10/10 12:15:08;;;;;;;7.67;4.80;;;18.80;1.00;;;;;;5081301;28;20419;-78
2022/10/10 12:17:56;;;;;;;7.50;4.60;;;18.90;1.00;;;;;;5082432;28;20463;-78
2022/10/10 12:20:26;;;;;;;7.83;4.60;;;18.80;1.00;;;;;;5074411;28;20414;-84
2022/10/10 12:23:13;;;;;;;9.57;5.50;;;18.90;1.00;;;;;;5083043;28;20385;-84
2022/10/10 12:25:45;;;;;;;18.43;5.63;;;18.90;1.00;;;;;;5073964;28;20416;-83
2022/10/10 12:28:55;;;;;;;14.90;5.17;;;18.90;1.00;;;;;;5087004;28;20386;-83
2022/10/10 12:38:04;;;;;;;9.97;4.73;;;19.20;1.00;;;;;;5087137;28;20470;-81
2022/10/10 12:44:29;;;;;;;13.30;4.77;;;19.60;1.00;;;;;;5082458;28;20169;-81
2022/10/10 13:00:26;;;;;;;9.90;4.40;;;19.90;1.00;;;;;;5086718;28;20399;-80
2022/10/10 13:03:25;;;;;;;7.23;4.10;;;19.90;1.00;;;;;;5084420;28;20411;-83
2022/10/10 13:16:16;;;;;;;10.52;4.18;;;19.80;1.00;;;;;;5083550;28;20384;-82
2022/10/10 13:18:53;;;;;;;6.80;4.13;;;20.00;1.00;;;;;;5074622;28;20186;-81
2022/10/10 13:21:29;;;;;;;10.07;4.10;;;20.10;1.00;;;;;;5073241;28;20914;-75
2022/10/10 13:24:04;;;;;;;7.70;4.47;;;20.20;1.00;;;;;;5086084;28;20424;-82
2022/10/10 13:27:02;;;;;;;9.30;4.70;;;20.20;1.00;;;;;;5074010;28;20520;-77
2022/10/10 13:29:32;;;;;;;8.00;3.57;;;20.20;1.00;;;;;;5081204;28;20412;-75
2022/10/10 13:35:27;;;;;;;7.00;4.40;;;20.30;1.00;;;;;;5091958;28;20821;-77
2022/10/10 13:37:59;;;;;;;9.37;4.50;;;20.40;1.00;;;;;;5086479;28;20960;-77
2022/10/10 13:43:46;;;;;;;15.13;3.77;;;20.50;1.00;;;;;;5083175;28;20385;-78
2022/10/10 13:46:32;;;;;;;8.93;4.00;;;20.50;1.00;;;;;;5090676;28;20397;-78
2022/10/10 13:53:02;;;;;;;9.53;4.03;;;20.60;1.00;;;;;;5084088;28;20397;-79
2022/10/10 13:55:35;;;;;;;11.17;4.43;;;20.50;1.00;;;;;;5080500;28;20424;-78
2022/10/10 13:58:07;;;;;;;9.43;4.53;;;20.50;1.00;;;;;;5077170;28;20977;-78
2022/10/10 14:03:59;;;;;;;11.00;3.20;;;20.60;1.00;;;;;;5089519;28;20498;-77
2022/10/10 14:06:33;;;;;;;6.10;4.07;;;20.60;1.00;;;;;;5086242;28;20457;-79
2022/10/10 14:09:21;;;;;;;23.73;4.70;;;20.70;1.00;;;;;;5091470;28;20471;-80
2022/10/10 14:11:49;;;;;;;10.93;4.23;;;20.60;1.00;;;;;;5079277;28;20902;-79
2022/10/10 14:18:32;;;;;;;8.53;3.43;;;20.70;1.00;;;;;;5075141;28;21061;-79
2022/10/10 14:21:32;;;;;;;15.63;4.07;;;20.60;1.00;;;;;;5081144;28;20425;-80
2022/10/10 14:24:14;;;;;;;12.50;3.97;;;20.60;1.00;;;;;;5083522;28;20464;-81
2022/10/10 14:30:35;;;;;;;17.43;4.03;;;20.70;1.00;;;;;;5076022;28;20418;-84
2022/10/10 14:36:23;;;;;;;13.70;4.57;;;20.40;1.00;;;;;;5095873;28;20379;-78
2022/10/10 14:38:56;;;;;;;8.70;4.50;;;20.20;1.00;;;;;;5081790;28;20433;-78
2022/10/10 14:44:51;;;;;;;9.23;3.60;;;20.40;1.00;;;;;;5094952;28;20484;-76
2022/10/10 14:47:21;;;;;;;10.73;3.77;;;20.50;1.00;;;;;;5081171;28;20411;-75
2022/10/10 14:49:56;;;;;;;5.50;3.87;;;20.60;1.00;;;;;;5087710;28;20452;-81
2022/10/10 14:53:02;;;;;;;11.07;4.00;;;20.70;1.00;;;;;;5077390;28;20417;-77
2022/10/10 14:55:27;;;;;;;7.33;3.37;;;21.00;1.00;;;;;;5081138;28;20411;-75
2022/10/10 14:58:03;;;;;;;7.67;3.90;;;21.20;1.00;;;;;;5081133;28;20448;-77
2022/10/10 15:00:45;;;;;;;6.17;3.80;;;21.30;1.00;;;;;;5078402;28;20632;-77
2022/10/10 15:03:26;;;;;;;10.23;4.30;;;21.20;1.00;;;;;;5075521;28;20384;-77
2022/10/10 15:05:52;;;;;;;7.00;3.43;;;21.20;1.00;;;;;;5082374;28;20398;-76
2022/10/10 15:08:20;;;;;;;10.70;3.93;;;21.20;1.00;;;;;;5081440;28;20476;-76
2022/10/10 15:11:02;;;;;;;11.20;4.33;;;21.20;1.00;;;;;;5087945;28;20535;-77
2022/10/10 15:13:50;;;;;;;11.20;3.93;;;21.20;1.00;;;;;;5077255;28;20464;-77
2022/10/10 15:16:26;;;;;;;7.97;3.70;;;21.30;1.00;;;;;;5082926;28;20481;-78
2022/10/10 15:19:32;;;;;;;7.27;3.60;;;21.30;1.00;;;;;;5076914;28;20750;-77
2022/10/10 15:22:32;;;;;;;14.77;3.67;;;21.40;1.00;;;;;;5094830;28;20399;-81
2022/10/10 15:25:14;;;;;;;17.80;3.97;;;21.50;1.00;;;;;;5084102;28;20431;-84
2022/10/10 15:28:32;;;;;;;11.50;3.70;;;21.50;1.00;;;;;;5079063;28;21272;-85
2022/10/10 15:37:45;;;;;;;9.70;3.33;;;21.80;1.00;;;;;;5085189;28;20482;-76
2022/10/10 15:40:13;;;;;;;13.33;3.80;;;21.80;1.00;;;;;;5086515;28;20416;-76
2022/10/10 15:42:50;;;;;;;5.67;3.27;;;21.90;1.00;;;;;;5077720;28;20993;-76
2022/10/10 15:45:26;;;;;;;8.00;3.77;;;22.10;1.00;;;;;;5085691;28;20891;-75
2022/10/10 15:47:57;;;;;;;11.83;3.57;;;22.50;1.00;;;;;;5074691;28;20920;-76
2022/10/10 15:54:32;;;;;;;9.47;3.70;;;23.00;1.00;;;;;;5079428;28;20440;-82
2022/10/10 15:57:02;;;;;;;7.60;4.10;;;22.90;1.00;;;;;;5083773;28;20462;-84
2022/10/10 15:59:33;;;;;;;20.30;5.10;;;22.70;1.00;;;;;;5091525;28;20458;-83
2022/10/10 16:02:09;;;;;;;14.63;3.57;;;22.50;1.00;;;;;;5076968;28;20473;-83
2022/10/10 16:07:58;;;;;;;15.50;4.40;;;21.90;1.00;;;;;;5085214;28;20440;-77
2022/10/10 16:10:50;;;;;;;17.43;3.77;;;21.60;1.00;;;;;;5076050;28;20439;-77
2022/10/10 16:14:02;;;;;;;10.80;4.80;;;21.20;1.00;;;;;;5088884;28;20415;-76
2022/10/10 16:16:50;;;;;;;14.33;4.00;;;20.90;1.00;;;;;;5079492;28;20403;-77
2022/10/10 16:19:32;;;;;;;10.90;4.47;;;20.60;1.00;;;;;;5074313;28;20479;-77
2022/10/10 16:22:02;;;;;;;14.10;3.87;;;20.30;1.00;;;;;;5080453;28;20737;-83
2022/10/10 16:25:02;;;;;;;13.40;3.70;;;20.10;1.00;;;;;;5087446;28;20442;-83
2022/10/10 16:28:02;;;;;;;17.67;5.40;;;19.80;1.00;;;;;;5083996;28;20507;-81
2022/10/10 16:31:03;;;;;;;12.57;4.97;;;19.50;1.00;;;;;;5073616;28;20408;-83
2022/10/10 16:36:56;;;;;;;16.60;4.70;;;19.00;1.00;;;;;;5076344;28;20526;-77
2022/10/10 16:39:22;;;;;;;9.77;4.57;;;18.80;1.00;;;;;;5075784;28;20911;-77
2022/10/10 16:42:03;;;;;;;16.07;4.17;;;18.60;1.00;;;;;;5091067;28;20430;-77
2022/10/10 16:44:38;;;;;;;10.93;4.90;;;18.40;1.00;;;;;;5081766;28;20641;-77
2022/10/10 16:47:38;;;;;;;14.50;4.30;;;18.20;1.00;;;;;;5081300;28;20962;-76
2022/10/10 16:50:14;;;;;;;14.67;4.80;;;18.00;1.00;;;;;;5073635;28;20403;-76
2022/10/10 16:52:50;;;;;;;10.60;5.53;;;17.90;1.00;;;;;;5087080;28;20420;-86
2022/10/10 16:58:57;;;;;;;16.40;5.00;;;17.60;1.00;;;;;;5073608;28;20430;-88
2022/10/10 17:01:33;;;;;;;7.90;4.57;;;17.50;1.00;;;;;;5077400;28;20819;-82
2022/10/10 17:04:32;;;;;;;25.77;5.30;;;17.40;1.00;;;;;;5086913;28;20409;-82
2022/10/10 17:07:20;;;;;;;13.87;4.93;;;17.30;1.00;;;;;;5075099;28;20411;-82
2022/10/10 17:09:46;;;;;;;11.50;4.80;;;17.20;1.00;;;;;;5090349;28;20420;-81
2022/10/10 17:12:32;;;;;;;10.10;4.70;;;17.20;1.00;;;;;;5086223;28;20380;-87
2022/10/10 17:15:32;;;;;;;10.20;4.47;;;17.10;1.00;;;;;;5087764;28;20279;-82
2022/10/10 17:18:33;;;;;;;12.57;4.50;;;17.10;1.00;;;;;;5075577;28;20528;-84
2022/10/10 17:21:32;;;;;;;19.53;5.30;;;17.00;1.00;;;;;;5092877;28;20732;-83
2022/10/10 17:24:03;;;;;;;11.20;4.73;;;17.00;1.00;;;;;;5080157;28;20409;-84
2022/10/10 17:30:04;;;;;;;9.67;4.80;;;16.90;1.00;;;;;;5081313;28;20452;-84
2022/10/10 17:33:02;;;;;;;16.97;4.93;;;16.90;1.00;;;;;;5085650;28;20438;-84
2022/10/10 17:36:06;;;;;;;11.73;4.83;;;16.90;1.00;;;;;;5083204;28;20452;-86
2022/10/10 17:38:33;;;;;;;13.50;5.27;;;16.90;1.00;;;;;;5089174;28;20455;-84
2022/10/10 17:41:04;;;;;;;11.30;4.80;;;16.80;1.00;;;;;;5080663;28;20440;-84
2022/10/10 17:44:04;;;;;;;14.17;5.40;;;16.80;1.00;;;;;;5088181;28;20392;-84
2022/10/10 17:47:02;;;;;;;16.60;4.63;;;16.80;1.00;;;;;;5092943;28;20399;-83
2022/10/10 17:49:46;;;;;;;17.97;5.97;;;16.90;1.00;;;;;;5090107;28;20385;-81
2022/10/10 17:52:21;;;;;;;8.33;4.50;;;16.90;1.00;;;;;;5089386;28;20504;-83
2022/10/10 17:55:02;;;;;;;14.60;5.23;;;16.90;1.00;;;;;;5085636;28;20537;-86
2022/10/10 17:57:34;;;;;;;11.97;4.50;;;16.90;1.00;;;;;;5093239;28;20424;-82
2022/10/10 18:00:32;;;;;;;13.93;4.97;;;16.80;1.00;;;;;;5089534;28;20390;-84
2022/10/10 18:03:32;;;;;;;11.03;4.67;;;16.80;1.00;;;;;;5098819;28;20922;-83
2022/10/10 18:06:32;;;;;;;8.23;4.93;;;16.80;1.00;;;;;;5076771;28;20415;-85
2022/10/10 18:09:03;;;;;;;12.37;5.70;;;16.80;1.00;;;;;;5086253;28;20404;-82
2022/10/10 18:11:33;;;;;;;10.20;5.30;;;16.80;1.00;;;;;;5074739;28;20485;-83
2022/10/10 18:14:03;;;;;;;18.13;6.33;;;16.80;1.00;;;;;;5075166;28;20404;-82
2022/10/10 18:17:02;;;;;;;13.73;7.20;;;16.80;1.00;;;;;;5077016;28;20756;-85
2022/10/10 18:20:02;;;;;;;21.00;6.80;;;16.80;1.00;;;;;;5092530;28;20428;-83
2022/10/10 18:23:13;;;;;;;20.20;7.67;;;16.80;1.00;;;;;;5075911;28;20389;-83
2022/10/10 18:25:38;;;;;;;13.30;7.03;;;16.80;1.00;;;;;;5081249;28;20903;-80
2022/10/10 18:28:33;;;;;;;18.30;8.57;;;16.80;1.00;;;;;;5090175;28;20516;-80